sensor_id;sensor_type;location;lat;lon;timestamp;P1;durP1;ratioP1;P2;durP2;ratioP2
31224;SDS011;17847;31.524;74.366;2023-09-19T00:01:31;9.20;;;2.97;;
31224;SDS011;17847;31.524;74.366;2023-09-19T00:04:01;7.75;;;2.97;;
31224;SDS011;17847;31.524;74.366;2023-09-19T00:06:31;10.70;;;4.47;;
31224;SDS011;17847;31.524;74.366;2023-09-19T00:09:00;9.88;;;4.20;;
31224;SDS011;17847;31.524;74.366;2023-09-19T00:11:31;10.13;;;4.50;;
31224;SDS011;17847;31.524;74.366;2023-09-19T00:14:16;10.68;;;4.55;;
31224;SDS011;17847;31.524;74.366;2023-09-19T00:16:45;8.45;;;4.57;;
31224;SDS011;17847;31.524;74.366;2023-09-19T00:19:15;12.00;;;5.93;;
31224;SDS011;17847;31.524;74.366;2023-09-19T00:21:44;13.60;;;6.45;;
31224;SDS011;17847;31.524;74.366;2023-09-19T00:24:15;12.43;;;6.40;;
31224;SDS011;17847;31.524;74.366;2023-09-19T00:26:45;8.57;;;5.70;;
31224;SDS011;17847;31.524;74.366;2023-09-19T00:29:15;5.85;;;4.45;;
31224;SDS011;17847;31.524;74.366;2023-09-19T00:31:44;6.88;;;4.88;;
31224;SDS011;17847;31.524;74.366;2023-09-19T00:34:14;9.82;;;5.38;;
31224;SDS011;17847;31.524;74.366;2023-09-19T00:36:45;8.40;;;5.22;;
31224;SDS011;17847;31.524;74.366;2023-09-19T00:39:14;8.43;;;5.05;;
31224;SDS011;17847;31.524;74.366;2023-09-19T00:41:44;6.15;;;5.10;;
31224;SDS011;17847;31.524;74.366;2023-09-19T00:44:13;7.82;;;5.47;;
31224;SDS011;17847;31.524;74.366;2023-09-19T00:46:44;7.15;;;5.32;;
31224;SDS011;17847;31.524;74.366;2023-09-19T00:49:17;7.55;;;5.13;;
31224;SDS011;17847;31.524;74.366;2023-09-19T00:51:50;7.30;;;5.32;;
31224;SDS011;17847;31.524;74.366;2023-09-19T00:54:20;4.85;;;4.32;;
31224;SDS011;17847;31.524;74.366;2023-09-19T00:56:49;7.40;;;4.78;;
31224;SDS011;17847;31.524;74.366;2023-09-19T00:59:22;7.82;;;4.50;;
31224;SDS011;17847;31.524;74.366;2023-09-19T01:01:52;9.00;;;4.75;;
31224;SDS011;17847;31.524;74.366;2023-09-19T01:04:23;6.72;;;4.50;;
31224;SDS011;17847;31.524;74.366;2023-09-19T01:06:54;4.95;;;3.67;;
31224;SDS011;17847;31.524;74.366;2023-09-19T01:09:23;5.55;;;3.97;;
31224;SDS011;17847;31.524;74.366;2023-09-19T01:11:53;4.75;;;3.60;;
31224;SDS011;17847;31.524;74.366;2023-09-19T01:15:15;6.10;;;3.88;;
31224;SDS011;17847;31.524;74.366;2023-09-19T01:17:32;4.80;;;3.40;;
31224;SDS011;17847;31.524;74.366;2023-09-19T01:20:31;7.65;;;4.78;;
31224;SDS011;17847;31.524;74.366;2023-09-19T01:28:51;3.83;;;2.47;;
31224;SDS011;17847;31.524;74.366;2023-09-19T01:31:23;2.70;;;2.50;;
31224;SDS011;17847;31.524;74.366;2023-09-19T01:34:01;5.28;;;3.45;;
31224;SDS011;17847;31.524;74.366;2023-09-19T01:36:36;4.80;;;3.50;;
31224;SDS011;17847;31.524;74.366;2023-09-19T01:39:08;4.13;;;3.10;;
31224;SDS011;17847;31.524;74.366;2023-09-19T01:47:19;2.03;;;1.30;;
31224;SDS011;17847;31.524;74.366;2023-09-19T01:50:23;2.35;;;1.60;;
31224;SDS011;17847;31.524;74.366;2023-09-19T01:52:59;2.25;;;1.35;;
31224;SDS011;17847;31.524;74.366;2023-09-19T01:55:49;1.95;;;1.10;;
31224;SDS011;17847;31.524;74.366;2023-09-19T01:58:34;1.42;;;1.08;;
31224;SDS011;17847;31.524;74.366;2023-09-19T02:01:16;2.50;;;1.48;;
31224;SDS011;17847;31.524;74.366;2023-09-19T02:03:51;2.95;;;1.30;;
31224;SDS011;17847;31.524;74.366;2023-09-19T02:06:21;2.75;;;1.17;;
31224;SDS011;17847;31.524;74.366;2023-09-19T02:08:53;2.67;;;1.30;;
31224;SDS011;17847;31.524;74.366;2023-09-19T02:11:23;2.78;;;1.00;;
31224;SDS011;17847;31.524;74.366;2023-09-19T02:13:53;1.95;;;0.80;;
31224;SDS011;17847;31.524;74.366;2023-09-19T02:16:22;2.42;;;0.90;;
31224;SDS011;17847;31.524;74.366;2023-09-19T02:18:51;3.22;;;1.05;;
31224;SDS011;17847;31.524;74.366;2023-09-19T02:21:21;3.17;;;1.13;;
31224;SDS011;17847;31.524;74.366;2023-09-19T02:23:51;2.40;;;1.50;;
31224;SDS011;17847;31.524;74.366;2023-09-19T02:26:20;4.47;;;1.42;;
31224;SDS011;17847;31.524;74.366;2023-09-19T02:29:06;2.10;;;1.23;;
31224;SDS011;17847;31.524;74.366;2023-09-19T02:31:35;2.10;;;1.48;;
31224;SDS011;17847;31.524;74.366;2023-09-19T02:34:05;3.70;;;2.00;;
31224;SDS011;17847;31.524;74.366;2023-09-19T02:36:37;4.43;;;2.88;;
31224;SDS011;17847;31.524;74.366;2023-09-19T02:39:06;4.65;;;3.00;;
31224;SDS011;17847;31.524;74.366;2023-09-19T02:41:37;6.05;;;4.47;;
31224;SDS011;17847;31.524;74.366;2023-09-19T02:44:07;7.53;;;5.40;;
31224;SDS011;17847;31.524;74.366;2023-09-19T02:46:36;11.70;;;8.07;;
31224;SDS011;17847;31.524;74.366;2023-09-19T02:49:06;15.07;;;10.93;;
31224;SDS011;17847;31.524;74.366;2023-09-19T02:51:36;21.33;;;16.45;;
31224;SDS011;17847;31.524;74.366;2023-09-19T02:54:07;26.65;;;20.75;;
31224;SDS011;17847;31.524;74.366;2023-09-19T02:56:36;30.30;;;21.80;;
31224;SDS011;17847;31.524;74.366;2023-09-19T02:59:06;27.77;;;20.45;;
31224;SDS011;17847;31.524;74.366;2023-09-19T03:01:38;30.75;;;22.38;;
31224;SDS011;17847;31.524;74.366;2023-09-19T03:04:07;25.70;;;20.65;;
31224;SDS011;17847;31.524;74.366;2023-09-19T03:06:39;28.73;;;23.50;;
31224;SDS011;17847;31.524;74.366;2023-09-19T03:09:09;28.40;;;21.27;;
31224;SDS011;17847;31.524;74.366;2023-09-19T03:11:39;34.83;;;23.33;;
31224;SDS011;17847;31.524;74.366;2023-09-19T03:14:10;31.80;;;23.80;;
31224;SDS011;17847;31.524;74.366;2023-09-19T03:16:41;32.55;;;25.73;;
31224;SDS011;17847;31.524;74.366;2023-09-19T03:19:14;45.95;;;33.13;;
31224;SDS011;17847;31.524;74.366;2023-09-19T03:21:45;43.60;;;33.08;;
31224;SDS011;17847;31.524;74.366;2023-09-19T03:24:15;42.95;;;30.77;;
31224;SDS011;17847;31.524;74.366;2023-09-19T03:26:44;26.88;;;20.00;;
31224;SDS011;17847;31.524;74.366;2023-09-19T03:29:14;16.25;;;14.23;;
31224;SDS011;17847;31.524;74.366;2023-09-19T03:31:48;11.73;;;8.63;;
31224;SDS011;17847;31.524;74.366;2023-09-19T03:34:18;6.68;;;4.97;;
31224;SDS011;17847;31.524;74.366;2023-09-19T03:36:48;9.43;;;4.95;;
31224;SDS011;17847;31.524;74.366;2023-09-19T03:39:18;5.22;;;3.85;;
31224;SDS011;17847;31.524;74.366;2023-09-19T03:41:48;4.47;;;3.20;;
31224;SDS011;17847;31.524;74.366;2023-09-19T03:44:18;5.53;;;2.88;;
31224;SDS011;17847;31.524;74.366;2023-09-19T03:46:47;4.18;;;2.72;;
31224;SDS011;17847;31.524;74.366;2023-09-19T03:49:17;3.72;;;2.33;;
31224;SDS011;17847;31.524;74.366;2023-09-19T03:51:47;2.03;;;1.60;;
31224;SDS011;17847;31.524;74.366;2023-09-19T03:54:17;4.10;;;1.70;;
31224;SDS011;17847;31.524;74.366;2023-09-19T03:56:47;3.20;;;2.00;;
31224;SDS011;17847;31.524;74.366;2023-09-19T03:59:16;2.78;;;2.00;;
31224;SDS011;17847;31.524;74.366;2023-09-19T04:01:47;2.40;;;1.45;;
31224;SDS011;17847;31.524;74.366;2023-09-19T04:04:18;1.60;;;1.38;;
31224;SDS011;17847;31.524;74.366;2023-09-19T04:06:48;1.88;;;1.40;;
31224;SDS011;17847;31.524;74.366;2023-09-19T04:09:18;1.60;;;1.20;;
31224;SDS011;17847;31.524;74.366;2023-09-19T04:11:47;1.98;;;1.33;;
31224;SDS011;17847;31.524;74.366;2023-09-19T04:14:18;2.20;;;1.50;;
31224;SDS011;17847;31.524;74.366;2023-09-19T04:16:48;2.38;;;1.17;;
31224;SDS011;17847;31.524;74.366;2023-09-19T04:19:18;1.70;;;1.05;;
31224;SDS011;17847;31.524;74.366;2023-09-19T04:21:47;2.00;;;1.40;;
31224;SDS011;17847;31.524;74.366;2023-09-19T04:24:16;1.50;;;1.40;;
31224;SDS011;17847;31.524;74.366;2023-09-19T04:26:47;1.83;;;1.30;;
31224;SDS011;17847;31.524;74.366;2023-09-19T04:29:17;1.45;;;1.35;;
31224;SDS011;17847;31.524;74.366;2023-09-19T04:31:47;3.05;;;1.55;;
31224;SDS011;17847;31.524;74.366;2023-09-19T04:34:17;2.28;;;1.30;;
31224;SDS011;17847;31.524;74.366;2023-09-19T04:36:46;2.90;;;1.63;;
31224;SDS011;17847;31.524;74.366;2023-09-19T04:39:15;2.03;;;1.70;;
31224;SDS011;17847;31.524;74.366;2023-09-19T04:41:45;2.53;;;2.05;;
31224;SDS011;17847;31.524;74.366;2023-09-19T04:44:16;3.88;;;2.53;;
31224;SDS011;17847;31.524;74.366;2023-09-19T04:46:47;2.97;;;2.47;;
31224;SDS011;17847;31.524;74.366;2023-09-19T04:49:16;2.45;;;1.75;;
31224;SDS011;17847;31.524;74.366;2023-09-19T04:51:46;2.65;;;1.52;;
31224;SDS011;17847;31.524;74.366;2023-09-19T04:54:15;2.70;;;1.60;;
31224;SDS011;17847;31.524;74.366;2023-09-19T04:56:46;2.28;;;1.50;;
31224;SDS011;17847;31.524;74.366;2023-09-19T04:59:15;1.83;;;1.40;;
31224;SDS011;17847;31.524;74.366;2023-09-19T05:01:45;1.63;;;1.40;;
31224;SDS011;17847;31.524;74.366;2023-09-19T05:04:15;1.80;;;1.40;;
31224;SDS011;17847;31.524;74.366;2023-09-19T05:06:44;1.70;;;1.33;;
31224;SDS011;17847;31.524;74.366;2023-09-19T05:09:14;2.22;;;1.40;;
31224;SDS011;17847;31.524;74.366;2023-09-19T05:11:44;2.13;;;1.20;;
31224;SDS011;17847;31.524;74.366;2023-09-19T05:14:13;2.60;;;1.23;;
31224;SDS011;17847;31.524;74.366;2023-09-19T05:16:42;2.22;;;1.60;;
31224;SDS011;17847;31.524;74.366;2023-09-19T05:19:11;3.10;;;1.48;;
31224;SDS011;17847;31.524;74.366;2023-09-19T05:21:42;3.90;;;1.48;;
31224;SDS011;17847;31.524;74.366;2023-09-19T05:24:11;4.35;;;1.67;;
31224;SDS011;17847;31.524;74.366;2023-09-19T05:26:42;2.45;;;1.88;;
31224;SDS011;17847;31.524;74.366;2023-09-19T05:29:13;2.17;;;1.73;;
31224;SDS011;17847;31.524;74.366;2023-09-19T05:31:43;3.38;;;2.25;;
31224;SDS011;17847;31.524;74.366;2023-09-19T05:34:12;2.33;;;2.00;;
31224;SDS011;17847;31.524;74.366;2023-09-19T05:36:42;2.80;;;2.17;;
31224;SDS011;17847;31.524;74.366;2023-09-19T05:39:11;2.75;;;1.80;;
31224;SDS011;17847;31.524;74.366;2023-09-19T05:41:40;2.10;;;1.85;;
31224;SDS011;17847;31.524;74.366;2023-09-19T05:44:10;2.20;;;1.88;;
31224;SDS011;17847;31.524;74.366;2023-09-19T05:46:39;1.80;;;1.70;;
31224;SDS011;17847;31.524;74.366;2023-09-19T05:49:08;3.00;;;2.00;;
31224;SDS011;17847;31.524;74.366;2023-09-19T05:51:37;2.28;;;1.58;;
31224;SDS011;17847;31.524;74.366;2023-09-19T05:54:07;2.08;;;1.67;;
31224;SDS011;17847;31.524;74.366;2023-09-19T05:56:36;2.90;;;1.83;;
31224;SDS011;17847;31.524;74.366;2023-09-19T05:59:05;2.05;;;1.85;;
31224;SDS011;17847;31.524;74.366;2023-09-19T06:01:35;2.72;;;1.80;;
31224;SDS011;17847;31.524;74.366;2023-09-19T06:04:04;1.90;;;1.70;;
31224;SDS011;17847;31.524;74.366;2023-09-19T06:06:34;1.92;;;1.70;;
31224;SDS011;17847;31.524;74.366;2023-09-19T06:09:07;2.55;;;1.85;;
31224;SDS011;17847;31.524;74.366;2023-09-19T06:11:41;2.37;;;2.03;;
31224;SDS011;17847;31.524;74.366;2023-09-19T06:14:11;2.38;;;1.77;;
31224;SDS011;17847;31.524;74.366;2023-09-19T06:16:40;3.13;;;2.42;;
31224;SDS011;17847;31.524;74.366;2023-09-19T06:19:10;2.78;;;2.25;;
31224;SDS011;17847;31.524;74.366;2023-09-19T06:21:40;2.63;;;2.05;;
31224;SDS011;17847;31.524;74.366;2023-09-19T06:24:10;1.90;;;1.73;;
31224;SDS011;17847;31.524;74.366;2023-09-19T06:26:39;2.72;;;2.17;;
31224;SDS011;17847;31.524;74.366;2023-09-19T06:29:09;2.05;;;1.80;;
31224;SDS011;17847;31.524;74.366;2023-09-19T06:31:39;2.10;;;1.90;;
31224;SDS011;17847;31.524;74.366;2023-09-19T06:34:08;2.00;;;1.65;;
31224;SDS011;17847;31.524;74.366;2023-09-19T06:36:37;2.35;;;1.60;;
31224;SDS011;17847;31.524;74.366;2023-09-19T06:39:07;2.30;;;1.65;;
31224;SDS011;17847;31.524;74.366;2023-09-19T06:41:39;2.50;;;1.87;;
31224;SDS011;17847;31.524;74.366;2023-09-19T06:44:10;2.13;;;1.70;;
31224;SDS011;17847;31.524;74.366;2023-09-19T06:46:39;2.10;;;1.42;;
31224;SDS011;17847;31.524;74.366;2023-09-19T06:49:12;3.42;;;1.40;;
31224;SDS011;17847;31.524;74.366;2023-09-19T06:51:43;1.60;;;1.17;;
31224;SDS011;17847;31.524;74.366;2023-09-19T06:54:15;1.80;;;1.45;;
31224;SDS011;17847;31.524;74.366;2023-09-19T06:56:46;1.92;;;1.33;;
31224;SDS011;17847;31.524;74.366;2023-09-19T06:59:16;1.42;;;1.00;;
31224;SDS011;17847;31.524;74.366;2023-09-19T07:01:45;1.42;;;1.20;;
31224;SDS011;17847;31.524;74.366;2023-09-19T07:04:15;3.15;;;1.40;;
31224;SDS011;17847;31.524;74.366;2023-09-19T07:06:51;2.17;;;1.58;;
31224;SDS011;17847;31.524;74.366;2023-09-19T07:09:20;1.50;;;1.10;;
31224;SDS011;17847;31.524;74.366;2023-09-19T07:11:50;1.95;;;1.42;;
31224;SDS011;17847;31.524;74.366;2023-09-19T07:14:20;1.50;;;1.40;;
31224;SDS011;17847;31.524;74.366;2023-09-19T07:16:49;1.85;;;1.70;;
31224;SDS011;17847;31.524;74.366;2023-09-19T07:19:20;1.58;;;1.48;;
31224;SDS011;17847;31.524;74.366;2023-09-19T07:21:50;2.20;;;1.92;;
31224;SDS011;17847;31.524;74.366;2023-09-19T07:24:19;2.83;;;1.67;;
31224;SDS011;17847;31.524;74.366;2023-09-19T07:26:51;1.95;;;1.85;;
31224;SDS011;17847;31.524;74.366;2023-09-19T07:29:20;5.20;;;1.88;;
31224;SDS011;17847;31.524;74.366;2023-09-19T07:31:50;3.83;;;2.13;;
31224;SDS011;17847;31.524;74.366;2023-09-19T07:34:19;3.80;;;2.00;;
31224;SDS011;17847;31.524;74.366;2023-09-19T07:36:51;1.92;;;1.83;;
31224;SDS011;17847;31.524;74.366;2023-09-19T07:39:20;2.50;;;2.30;;
31224;SDS011;17847;31.524;74.366;2023-09-19T07:41:50;2.58;;;2.38;;
31224;SDS011;17847;31.524;74.366;2023-09-19T07:44:19;2.22;;;2.03;;
31224;SDS011;17847;31.524;74.366;2023-09-19T07:46:48;2.42;;;2.20;;
31224;SDS011;17847;31.524;74.366;2023-09-19T07:49:19;2.65;;;2.20;;
31224;SDS011;17847;31.524;74.366;2023-09-19T07:51:49;3.53;;;2.28;;
31224;SDS011;17847;31.524;74.366;2023-09-19T07:54:18;4.38;;;2.50;;
31224;SDS011;17847;31.524;74.366;2023-09-19T07:56:50;4.10;;;2.60;;
31224;SDS011;17847;31.524;74.366;2023-09-19T07:59:19;4.20;;;2.60;;
31224;SDS011;17847;31.524;74.366;2023-09-19T08:01:49;2.72;;;2.33;;
31224;SDS011;17847;31.524;74.366;2023-09-19T08:04:22;3.08;;;2.22;;
31224;SDS011;17847;31.524;74.366;2023-09-19T08:06:54;3.00;;;2.45;;
31224;SDS011;17847;31.524;74.366;2023-09-19T08:09:26;2.90;;;2.60;;
31224;SDS011;17847;31.524;74.366;2023-09-19T08:11:56;2.50;;;2.30;;
31224;SDS011;17847;31.524;74.366;2023-09-19T08:14:25;2.40;;;2.20;;
31224;SDS011;17847;31.524;74.366;2023-09-19T08:16:58;5.55;;;2.45;;
31224;SDS011;17847;31.524;74.366;2023-09-19T08:19:28;2.92;;;2.30;;
31224;SDS011;17847;31.524;74.366;2023-09-19T08:22:00;6.82;;;1.85;;
31224;SDS011;17847;31.524;74.366;2023-09-19T08:24:31;2.58;;;2.10;;
31224;SDS011;17847;31.524;74.366;2023-09-19T08:27:01;2.20;;;2.00;;
31224;SDS011;17847;31.524;74.366;2023-09-19T08:29:34;2.33;;;2.13;;
31224;SDS011;17847;31.524;74.366;2023-09-19T08:32:03;3.70;;;2.30;;
31224;SDS011;17847;31.524;74.366;2023-09-19T08:34:33;2.08;;;1.88;;
31224;SDS011;17847;31.524;74.366;2023-09-19T08:37:07;2.55;;;2.10;;
31224;SDS011;17847;31.524;74.366;2023-09-19T08:39:37;2.60;;;2.40;;
31224;SDS011;17847;31.524;74.366;2023-09-19T08:42:06;2.30;;;2.10;;
31224;SDS011;17847;31.524;74.366;2023-09-19T08:44:36;2.33;;;2.13;;
31224;SDS011;17847;31.524;74.366;2023-09-19T08:47:15;4.97;;;2.50;;
31224;SDS011;17847;31.524;74.366;2023-09-19T08:52:32;3.47;;;2.42;;
31224;SDS011;17847;31.524;74.366;2023-09-19T08:55:13;3.47;;;2.30;;
31224;SDS011;17847;31.524;74.366;2023-09-19T08:57:49;2.83;;;2.35;;
31224;SDS011;17847;31.524;74.366;2023-09-19T09:00:21;3.83;;;2.85;;
31224;SDS011;17847;31.524;74.366;2023-09-19T09:02:56;3.72;;;3.03;;
31224;SDS011;17847;31.524;74.366;2023-09-19T09:05:27;4.35;;;2.80;;
31224;SDS011;17847;31.524;74.366;2023-09-19T09:07:58;3.17;;;2.45;;
31224;SDS011;17847;31.524;74.366;2023-09-19T09:10:28;2.60;;;2.40;;
31224;SDS011;17847;31.524;74.366;2023-09-19T09:12:58;2.83;;;2.33;;
31224;SDS011;17847;31.524;74.366;2023-09-19T09:15:27;2.95;;;2.47;;
31224;SDS011;17847;31.524;74.366;2023-09-19T09:18:01;3.05;;;2.33;;
31224;SDS011;17847;31.524;74.366;2023-09-19T09:20:33;3.67;;;2.53;;
31224;SDS011;17847;31.524;74.366;2023-09-19T09:23:03;2.40;;;2.20;;
31224;SDS011;17847;31.524;74.366;2023-09-19T09:25:52;3.17;;;2.83;;
31224;SDS011;17847;31.524;74.366;2023-09-19T09:28:28;3.28;;;2.97;;
31224;SDS011;17847;31.524;74.366;2023-09-19T09:30:59;3.85;;;3.00;;
31224;SDS011;17847;31.524;74.366;2023-09-19T09:33:31;3.55;;;3.15;;
31224;SDS011;17847;31.524;74.366;2023-09-19T09:36:02;3.35;;;3.05;;
31224;SDS011;17847;31.524;74.366;2023-09-19T09:38:43;3.92;;;3.10;;
31224;SDS011;17847;31.524;74.366;2023-09-19T09:41:27;3.38;;;3.08;;
31224;SDS011;17847;31.524;74.366;2023-09-19T09:44:15;3.58;;;3.28;;
31224;SDS011;17847;31.524;74.366;2023-09-19T09:46:47;3.20;;;2.90;;
31224;SDS011;17847;31.524;74.366;2023-09-19T09:49:24;4.22;;;2.90;;
31224;SDS011;17847;31.524;74.366;2023-09-19T09:52:05;2.97;;;2.75;;
31224;SDS011;17847;31.524;74.366;2023-09-19T09:54:58;3.30;;;2.72;;
31224;SDS011;17847;31.524;74.366;2023-09-19T09:57:32;6.50;;;3.15;;
31224;SDS011;17847;31.524;74.366;2023-09-19T10:00:03;3.70;;;3.35;;
31224;SDS011;17847;31.524;74.366;2023-09-19T10:02:43;4.35;;;3.58;;
31224;SDS011;17847;31.524;74.366;2023-09-19T10:05:16;4.78;;;4.15;;
31224;SDS011;17847;31.524;74.366;2023-09-19T10:07:56;4.18;;;3.72;;
31224;SDS011;17847;31.524;74.366;2023-09-19T10:10:41;5.57;;;4.45;;
31224;SDS011;17847;31.524;74.366;2023-09-19T10:13:14;5.00;;;4.28;;
31224;SDS011;17847;31.524;74.366;2023-09-19T10:15:49;4.68;;;4.25;;
31224;SDS011;17847;31.524;74.366;2023-09-19T10:18:24;4.43;;;3.85;;
31224;SDS011;17847;31.524;74.366;2023-09-19T10:20:56;5.35;;;4.25;;
31224;SDS011;17847;31.524;74.366;2023-09-19T10:23:26;4.65;;;4.13;;
31224;SDS011;17847;31.524;74.366;2023-09-19T10:26:02;4.70;;;3.60;;
31224;SDS011;17847;31.524;74.366;2023-09-19T10:28:34;5.68;;;4.47;;
31224;SDS011;17847;31.524;74.366;2023-09-19T10:31:07;5.28;;;4.78;;
31224;SDS011;17847;31.524;74.366;2023-09-19T10:33:38;6.18;;;4.82;;
31224;SDS011;17847;31.524;74.366;2023-09-19T10:38:41;8.10;;;6.43;;
31224;SDS011;17847;31.524;74.366;2023-09-19T10:41:14;9.25;;;7.15;;
31224;SDS011;17847;31.524;74.366;2023-09-19T10:43:48;12.63;;;8.05;;
31224;SDS011;17847;31.524;74.366;2023-09-19T10:46:20;11.43;;;10.23;;
31224;SDS011;17847;31.524;74.366;2023-09-19T10:48:52;16.17;;;12.38;;
31224;SDS011;17847;31.524;74.366;2023-09-19T10:51:23;17.30;;;14.13;;
31224;SDS011;17847;31.524;74.366;2023-09-19T10:56:46;16.63;;;14.10;;
31224;SDS011;17847;31.524;74.366;2023-09-19T10:59:21;14.00;;;12.18;;
31224;SDS011;17847;31.524;74.366;2023-09-19T11:01:55;13.57;;;12.18;;
31224;SDS011;17847;31.524;74.366;2023-09-19T11:04:32;13.88;;;12.25;;
31224;SDS011;17847;31.524;74.366;2023-09-19T11:07:13;13.52;;;11.35;;
31224;SDS011;17847;31.524;74.366;2023-09-19T11:15:05;16.63;;;10.95;;
31224;SDS011;17847;31.524;74.366;2023-09-19T11:17:44;13.13;;;10.85;;
31224;SDS011;17847;31.524;74.366;2023-09-19T11:20:16;12.68;;;9.25;;
31224;SDS011;17847;31.524;74.366;2023-09-19T11:25:44;10.57;;;9.50;;
31224;SDS011;17847;31.524;74.366;2023-09-19T11:30:53;10.73;;;8.00;;
31224;SDS011;17847;31.524;74.366;2023-09-19T11:36:12;10.15;;;8.20;;
31224;SDS011;17847;31.524;74.366;2023-09-19T11:46:56;9.88;;;8.77;;
31224;SDS011;17847;31.524;74.366;2023-09-19T11:49:31;10.38;;;9.00;;
31224;SDS011;17847;31.524;74.366;2023-09-19T11:52:02;10.48;;;8.73;;
31224;SDS011;17847;31.524;74.366;2023-09-19T11:54:36;10.63;;;8.57;;
31224;SDS011;17847;31.524;74.366;2023-09-19T11:57:09;10.60;;;9.10;;
31224;SDS011;17847;31.524;74.366;2023-09-19T11:59:40;9.77;;;8.30;;
31224;SDS011;17847;31.524;74.366;2023-09-19T12:02:12;10.27;;;8.57;;
31224;SDS011;17847;31.524;74.366;2023-09-19T12:05:12;10.30;;;8.90;;
31224;SDS011;17847;31.524;74.366;2023-09-19T12:07:44;9.27;;;8.27;;
31224;SDS011;17847;31.524;74.366;2023-09-19T12:10:16;9.32;;;8.43;;
31224;SDS011;17847;31.524;74.366;2023-09-19T12:12:49;10.38;;;8.70;;
31224;SDS011;17847;31.524;74.366;2023-09-19T12:15:23;9.70;;;8.75;;
31224;SDS011;17847;31.524;74.366;2023-09-19T12:17:56;12.32;;;9.30;;
31224;SDS011;17847;31.524;74.366;2023-09-19T12:20:41;10.45;;;9.13;;
31224;SDS011;17847;31.524;74.366;2023-09-19T12:23:17;12.00;;;9.77;;
31224;SDS011;17847;31.524;74.366;2023-09-19T13:14:29;12.98;;;11.48;;
31224;SDS011;17847;31.524;74.366;2023-09-19T13:19:55;12.35;;;11.15;;
31224;SDS011;17847;31.524;74.366;2023-09-19T13:25:14;16.95;;;11.43;;
31224;SDS011;17847;31.524;74.366;2023-09-19T13:27:52;13.05;;;11.30;;
31224;SDS011;17847;31.524;74.366;2023-09-19T13:30:39;14.73;;;11.02;;
31224;SDS011;17847;31.524;74.366;2023-09-19T13:33:13;14.77;;;11.52;;
31224;SDS011;17847;31.524;74.366;2023-09-19T13:35:49;13.73;;;11.63;;
31224;SDS011;17847;31.524;74.366;2023-09-19T13:38:19;12.50;;;10.98;;
31224;SDS011;17847;31.524;74.366;2023-09-19T13:40:50;12.90;;;10.27;;
31224;SDS011;17847;31.524;74.366;2023-09-19T13:43:21;13.50;;;11.10;;
31224;SDS011;17847;31.524;74.366;2023-09-19T13:45:50;14.05;;;9.77;;
31224;SDS011;17847;31.524;74.366;2023-09-19T13:48:19;14.95;;;11.05;;
31224;SDS011;17847;31.524;74.366;2023-09-19T13:50:50;16.92;;;10.40;;
31224;SDS011;17847;31.524;74.366;2023-09-19T13:53:20;13.02;;;10.27;;
31224;SDS011;17847;31.524;74.366;2023-09-19T13:55:49;13.27;;;9.93;;
31224;SDS011;17847;31.524;74.366;2023-09-19T13:58:35;11.50;;;10.02;;
31224;SDS011;17847;31.524;74.366;2023-09-19T14:01:05;11.90;;;10.18;;
31224;SDS011;17847;31.524;74.366;2023-09-19T14:03:40;12.05;;;10.00;;
31224;SDS011;17847;31.524;74.366;2023-09-19T14:06:15;11.02;;;9.07;;
31224;SDS011;17847;31.524;74.366;2023-09-19T14:08:45;11.80;;;9.77;;
31224;SDS011;17847;31.524;74.366;2023-09-19T14:11:16;14.35;;;9.52;;
31224;SDS011;17847;31.524;74.366;2023-09-19T14:13:46;11.82;;;10.02;;
31224;SDS011;17847;31.524;74.366;2023-09-19T14:16:17;11.98;;;10.20;;
31224;SDS011;17847;31.524;74.366;2023-09-19T14:18:46;11.18;;;9.73;;
31224;SDS011;17847;31.524;74.366;2023-09-19T14:21:15;20.70;;;10.73;;
31224;SDS011;17847;31.524;74.366;2023-09-19T14:23:45;10.80;;;9.18;;
31224;SDS011;17847;31.524;74.366;2023-09-19T14:26:14;10.68;;;9.57;;
31224;SDS011;17847;31.524;74.366;2023-09-19T14:28:47;11.57;;;9.37;;
31224;SDS011;17847;31.524;74.366;2023-09-19T14:31:16;13.63;;;9.75;;
31224;SDS011;17847;31.524;74.366;2023-09-19T14:33:45;12.75;;;9.85;;
31224;SDS011;17847;31.524;74.366;2023-09-19T14:36:21;12.25;;;9.90;;
31224;SDS011;17847;31.524;74.366;2023-09-19T14:38:53;11.85;;;9.98;;
31224;SDS011;17847;31.524;74.366;2023-09-19T14:41:25;10.77;;;9.43;;
31224;SDS011;17847;31.524;74.366;2023-09-19T14:43:54;13.88;;;9.30;;
31224;SDS011;17847;31.524;74.366;2023-09-19T14:46:24;10.90;;;9.05;;
31224;SDS011;17847;31.524;74.366;2023-09-19T14:48:53;9.57;;;8.57;;
31224;SDS011;17847;31.524;74.366;2023-09-19T14:51:29;9.50;;;7.85;;
31224;SDS011;17847;31.524;74.366;2023-09-19T14:53:59;11.50;;;8.80;;
31224;SDS011;17847;31.524;74.366;2023-09-19T14:56:30;12.43;;;8.25;;
31224;SDS011;17847;31.524;74.366;2023-09-19T14:58:59;13.70;;;7.45;;
31224;SDS011;17847;31.524;74.366;2023-09-19T15:01:29;10.90;;;8.10;;
31224;SDS011;17847;31.524;74.366;2023-09-19T15:03:58;11.02;;;8.60;;
31224;SDS011;17847;31.524;74.366;2023-09-19T15:06:29;8.10;;;7.13;;
31224;SDS011;17847;31.524;74.366;2023-09-19T15:08:59;9.40;;;8.07;;
31224;SDS011;17847;31.524;74.366;2023-09-19T15:11:28;10.55;;;8.05;;
31224;SDS011;17847;31.524;74.366;2023-09-19T15:13:58;10.93;;;8.07;;
31224;SDS011;17847;31.524;74.366;2023-09-19T15:16:27;11.32;;;8.18;;
31224;SDS011;17847;31.524;74.366;2023-09-19T15:18:57;11.85;;;8.32;;
31224;SDS011;17847;31.524;74.366;2023-09-19T15:21:26;9.90;;;8.32;;
31224;SDS011;17847;31.524;74.366;2023-09-19T15:23:55;10.13;;;8.23;;
31224;SDS011;17847;31.524;74.366;2023-09-19T15:26:25;12.80;;;8.68;;
31224;SDS011;17847;31.524;74.366;2023-09-19T15:28:55;12.85;;;9.45;;
31224;SDS011;17847;31.524;74.366;2023-09-19T15:31:25;12.52;;;9.85;;
31224;SDS011;17847;31.524;74.366;2023-09-19T15:33:54;12.07;;;9.55;;
31224;SDS011;17847;31.524;74.366;2023-09-19T15:36:23;11.68;;;9.65;;
31224;SDS011;17847;31.524;74.366;2023-09-19T15:38:57;12.07;;;8.93;;
31224;SDS011;17847;31.524;74.366;2023-09-19T15:41:36;10.77;;;8.68;;
31224;SDS011;17847;31.524;74.366;2023-09-19T15:44:17;12.05;;;9.38;;
31224;SDS011;17847;31.524;74.366;2023-09-19T15:46:47;12.25;;;9.30;;
31224;SDS011;17847;31.524;74.366;2023-09-19T15:49:17;12.80;;;9.68;;
31224;SDS011;17847;31.524;74.366;2023-09-19T15:51:46;13.65;;;9.05;;
31224;SDS011;17847;31.524;74.366;2023-09-19T15:54:15;12.52;;;9.88;;
31224;SDS011;17847;31.524;74.366;2023-09-19T15:56:46;12.30;;;9.55;;
31224;SDS011;17847;31.524;74.366;2023-09-19T15:59:17;11.63;;;9.82;;
31224;SDS011;17847;31.524;74.366;2023-09-19T16:01:46;12.30;;;9.80;;
31224;SDS011;17847;31.524;74.366;2023-09-19T16:04:17;11.82;;;9.32;;
31224;SDS011;17847;31.524;74.366;2023-09-19T16:06:47;14.40;;;10.88;;
31224;SDS011;17847;31.524;74.366;2023-09-19T16:09:17;12.10;;;10.20;;
31224;SDS011;17847;31.524;74.366;2023-09-19T16:11:46;12.43;;;9.85;;
31224;SDS011;17847;31.524;74.366;2023-09-19T16:14:17;13.77;;;10.25;;
31224;SDS011;17847;31.524;74.366;2023-09-19T16:16:47;13.18;;;9.93;;
31224;SDS011;17847;31.524;74.366;2023-09-19T16:19:17;11.60;;;10.02;;
31224;SDS011;17847;31.524;74.366;2023-09-19T16:21:47;12.80;;;10.10;;
31224;SDS011;17847;31.524;74.366;2023-09-19T16:24:16;13.13;;;10.07;;
31224;SDS011;17847;31.524;74.366;2023-09-19T16:26:46;10.40;;;8.50;;
31224;SDS011;17847;31.524;74.366;2023-09-19T16:29:17;10.35;;;7.85;;
31224;SDS011;17847;31.524;74.366;2023-09-19T16:31:49;11.32;;;7.90;;